Time;durP1;ratioP1;P1;durP2;ratioP2;P2;SDS_P1;SDS_P2;PMS_P1;PMS_P2;Temp;Humidity;BMP_temperature;BMP_pressure;BME280_temperature;BME280_humidity;BME280_pressure;Samples;Min_cycle;Max_cycle;Signal;HPM_P1;HPM_P2
2022/12/27 00:00:50;;;;;;;15.65;2.75;;;5.00;99.90;;;;;;5039701;28;20384;-57
2022/12/27 00:03:16;;;;;;;10.43;2.38;;;5.00;99.90;;;;;;5023027;28;20041;-55
2022/12/27 00:05:46;;;;;;;15.95;2.63;;;5.00;99.90;;;;;;5025721;28;20044;-56
2022/12/27 00:08:13;;;;;;;19.92;3.28;;;5.00;99.90;;;;;;5012455;28;20045;-57
2022/12/27 00:10:39;;;;;;;13.02;2.83;;;5.00;99.90;;;;;;5040369;28;20033;-57
2022/12/27 00:13:05;;;;;;;15.25;2.25;;;5.00;99.90;;;;;;5029757;28;20498;-55
2022/12/27 00:15:33;;;;;;;12.52;2.33;;;5.00;99.90;;;;;;5038910;28;20082;-56
2022/12/27 00:17:59;;;;;;;12.20;3.85;;;5.00;99.90;;;;;;5049400;28;20423;-52
2022/12/27 00:20:25;;;;;;;12.63;2.47;;;5.00;99.90;;;;;;5030842;28;20045;-55
2022/12/27 00:22:50;;;;;;;15.70;2.72;;;5.00;99.90;;;;;;4978756;28;20381;-55
2022/12/27 00:25:16;;;;;;;13.02;2.45;;;5.00;99.90;;;;;;5019008;28;20495;-55
2022/12/27 00:27:42;;;;;;;9.93;2.60;;;5.00;99.90;;;;;;5025717;28;20040;-56
2022/12/27 00:30:08;;;;;;;18.42;2.58;;;5.00;99.90;;;;;;5014493;28;20049;-55
2022/12/27 00:32:34;;;;;;;14.05;2.17;;;5.00;99.90;;;;;;5044218;28;20052;-57
2022/12/27 00:35:00;;;;;;;12.45;3.28;;;5.10;99.90;;;;;;5023339;28;20059;-53
2022/12/27 00:37:25;;;;;;;15.23;2.40;;;5.00;99.90;;;;;;5008252;28;20363;-54
2022/12/27 00:39:51;;;;;;;20.30;3.30;;;5.10;99.90;;;;;;5045558;28;20044;-58
2022/12/27 00:42:17;;;;;;;11.48;2.95;;;5.10;99.90;;;;;;5039061;28;20064;-56
2022/12/27 00:44:42;;;;;;;12.35;2.40;;;5.10;99.90;;;;;;5030590;28;20554;-56
2022/12/27 00:47:09;;;;;;;14.90;2.50;;;5.10;99.90;;;;;;5040162;28;20081;-56
2022/12/27 00:49:35;;;;;;;14.50;2.38;;;5.20;99.90;;;;;;5035386;28;20515;-56
2022/12/27 00:52:01;;;;;;;12.60;2.15;;;5.10;99.90;;;;;;5040333;28;20044;-57
2022/12/27 00:54:26;;;;;;;11.38;3.00;;;5.20;99.90;;;;;;5047735;28;20033;-52
2022/12/27 00:56:52;;;;;;;13.10;2.80;;;5.20;99.90;;;;;;5032564;28;20041;-59
2022/12/27 00:59:18;;;;;;;13.00;2.78;;;5.20;99.90;;;;;;5023675;28;21494;-55
2022/12/27 01:01:44;;;;;;;14.55;3.50;;;5.20;99.90;;;;;;5037034;28;20094;-58
2022/12/27 01:04:12;;;;;;;14.80;2.10;;;5.30;99.90;;;;;;5036644;28;20049;-54
2022/12/27 01:06:39;;;;;;;10.13;2.45;;;5.20;99.90;;;;;;5016942;28;20068;-55
2022/12/27 01:09:05;;;;;;;12.63;4.03;;;5.30;99.90;;;;;;5054580;28;20057;-58
2022/12/27 01:11:31;;;;;;;10.50;2.70;;;5.30;99.90;;;;;;5039117;28;20192;-54
2022/12/27 01:14:00;;;;;;;14.20;3.03;;;5.30;99.90;;;;;;5026462;28;20037;-56
2022/12/27 01:16:27;;;;;;;8.75;2.30;;;5.30;99.90;;;;;;5016637;28;20063;-55
2022/12/27 01:18:54;;;;;;;15.50;2.92;;;5.30;99.90;;;;;;5039291;28;20045;-57
2022/12/27 01:21:21;;;;;;;14.15;2.28;;;5.30;99.90;;;;;;5040537;28;20348;-57
2022/12/27 01:23:48;;;;;;;14.40;2.65;;;5.40;99.90;;;;;;5023826;28;20056;-56
2022/12/27 01:26:16;;;;;;;14.38;2.38;;;5.40;99.90;;;;;;5016064;28;20039;-57
2022/12/27 01:28:42;;;;;;;12.82;2.20;;;5.30;99.90;;;;;;5046268;28;20052;-57
2022/12/27 01:31:16;;;;;;;7.70;1.92;;;5.40;99.90;;;;;;5040816;28;20036;-56
2022/12/27 01:33:42;;;;;;;9.48;2.55;;;5.40;99.90;;;;;;5018301;28;20052;-53
2022/12/27 01:36:13;;;;;;;9.23;2.65;;;5.50;99.90;;;;;;5025528;28;20048;-56
2022/12/27 01:38:41;;;;;;;9.55;2.05;;;5.50;99.90;;;;;;5034164;28;20508;-56
2022/12/27 01:43:59;;;;;;;6.00;1.85;;;5.50;99.90;;;;;;5026284;28;20037;-55
2022/12/27 01:46:25;;;;;;;13.27;2.58;;;5.50;99.90;;;;;;5034511;28;20036;-57
2022/12/27 01:48:51;;;;;;;11.00;2.00;;;5.30;99.90;;;;;;5023853;28;20040;-57
2022/12/27 01:51:17;;;;;;;12.63;2.22;;;5.50;99.90;;;;;;5047267;28;20040;-55
2022/12/27 01:53:47;;;;;;;8.55;1.75;;;5.40;99.90;;;;;;5036596;28;20037;-58
2022/12/27 01:56:19;;;;;;;12.52;2.03;;;5.40;99.90;;;;;;5025946;28;20068;-57
2022/12/27 01:58:59;;;;;;;12.85;2.40;;;5.30;99.90;;;;;;5021429;28;20117;-56
2022/12/27 02:01:37;;;;;;;13.18;2.10;;;5.30;99.90;;;;;;5029283;28;20119;-56
2022/12/27 02:04:17;;;;;;;11.82;2.20;;;5.30;99.90;;;;;;5037966;28;20041;-55
2022/12/27 02:06:45;;;;;;;11.93;2.33;;;5.30;99.90;;;;;;5048496;28;20040;-54
2022/12/27 02:09:16;;;;;;;14.23;4.55;;;5.30;99.90;;;;;;5052681;28;20150;-55
2022/12/27 02:11:51;;;;;;;17.80;2.20;;;5.30;99.90;;;;;;5045946;28;20041;-56
2022/12/27 02:14:34;;;;;;;18.40;2.55;;;5.30;99.90;;;;;;5026040;28;20037;-57
2022/12/27 02:17:13;;;;;;;11.57;1.95;;;5.40;99.90;;;;;;5036575;28;20136;-57
2022/12/27 02:19:39;;;;;;;6.85;1.80;;;5.50;99.90;;;;;;5033713;28;20076;-54
2022/12/27 02:22:17;;;;;;;9.23;2.03;;;5.40;99.90;;;;;;5023091;28;20476;-57
2022/12/27 02:25:02;;;;;;;14.32;2.38;;;5.30;99.90;;;;;;5040218;28;20418;-55
2022/12/27 02:27:36;;;;;;;7.15;2.05;;;5.30;99.90;;;;;;5012399;28;20879;-56
2022/12/27 02:30:05;;;;;;;12.63;2.85;;;5.30;99.90;;;;;;5038315;28;20033;-55
2022/12/27 02:32:52;;;;;;;10.10;2.47;;;5.40;99.90;;;;;;5021962;28;20057;-57
2022/12/27 02:35:40;;;;;;;11.60;2.03;;;5.40;99.90;;;;;;5039446;28;20036;-57
2022/12/27 02:38:12;;;;;;;9.52;1.88;;;5.40;99.90;;;;;;5031194;28;20072;-57
2022/12/27 02:53:03;;;;;;;12.88;2.53;;;5.40;99.90;;;;;;5043685;28;20138;-55
2022/12/27 02:58:40;;;;;;;11.93;2.60;;;5.40;99.90;;;;;;5027254;28;20049;-57
2022/12/27 03:04:45;;;;;;;11.88;2.70;;;5.40;99.90;;;;;;5049702;28;20080;-54
2022/12/27 03:07:23;;;;;;;10.27;2.63;;;5.50;99.90;;;;;;5034055;28;20041;-55
2022/12/27 03:16:07;;;;;;;15.68;3.00;;;5.50;99.90;;;;;;5045807;28;20103;-56
2022/12/27 03:19:10;;;;;;;12.27;2.58;;;5.50;99.90;;;;;;5042946;28;20130;-58
2022/12/27 03:27:31;;;;;;;17.02;3.20;;;5.40;99.90;;;;;;5031576;28;20323;-55
2022/12/27 03:33:14;;;;;;;14.10;2.78;;;5.40;99.90;;;;;;5026098;28;20048;-59
2022/12/27 03:39:12;;;;;;;16.08;2.55;;;5.40;99.90;;;;;;5041325;28;20041;-56
2022/12/27 03:44:36;;;;;;;13.88;2.25;;;5.40;99.90;;;;;;5030775;28;20041;-52
2022/12/27 03:47:20;;;;;;;10.57;1.92;;;5.40;99.90;;;;;;5042244;28;20029;-56
2022/12/27 03:49:59;;;;;;;9.20;2.00;;;5.30;99.90;;;;;;5042403;28;20134;-58
2022/12/27 03:52:35;;;;;;;8.30;2.30;;;5.30;99.90;;;;;;5046326;28;20059;-57
2022/12/27 03:55:01;;;;;;;12.50;2.00;;;5.30;99.90;;;;;;5047272;28;20591;-54
2022/12/27 03:57:27;;;;;;;11.70;2.63;;;5.30;99.90;;;;;;5028487;28;20041;-57
2022/12/27 03:59:53;;;;;;;11.07;2.47;;;5.30;99.90;;;;;;5055416;28;20048;-55
2022/12/27 04:02:19;;;;;;;13.55;2.25;;;5.30;99.90;;;;;;5030743;28;20032;-56
2022/12/27 04:04:45;;;;;;;9.60;2.15;;;5.30;99.90;;;;;;5053159;28;20072;-56
2022/12/27 04:07:14;;;;;;;12.60;3.67;;;5.30;99.90;;;;;;5050915;28;20075;-55
2022/12/27 04:37:05;;;;;;;10.38;2.42;;;5.20;99.90;;;;;;5051070;28;20037;-59
2022/12/27 04:39:31;;;;;;;20.00;2.75;;;5.30;99.90;;;;;;5031690;28;20199;-57
2022/12/27 04:55:59;;;;;;;11.95;2.00;;;5.20;99.90;;;;;;5043418;28;20049;-55
2022/12/27 04:58:25;;;;;;;9.73;1.80;;;5.10;99.90;;;;;;5040543;28;20103;-57
2022/12/27 05:03:37;;;;;;;12.52;3.00;;;5.10;99.90;;;;;;5039508;28;20037;-55
2022/12/27 05:06:03;;;;;;;16.48;2.60;;;5.10;99.90;;;;;;5015204;28;20047;-56
2022/12/27 05:13:58;;;;;;;14.57;2.63;;;5.10;99.90;;;;;;5029979;28;20044;-54
2022/12/27 05:16:25;;;;;;;12.75;2.70;;;5.00;99.90;;;;;;5025947;28;20771;-54
2022/12/27 05:18:51;;;;;;;15.13;2.42;;;5.10;99.90;;;;;;5044154;28;20381;-55
2022/12/27 05:21:20;;;;;;;14.57;2.40;;;5.10;99.90;;;;;;5054875;22;20076;-84
2022/12/27 05:26:30;;;;;;;16.55;3.42;;;5.80;99.90;;;;;;5026946;28;20044;-84
2022/12/27 05:28:57;;;;;;;13.95;3.38;;;5.00;99.90;;;;;;5044742;28;20084;-84
2022/12/27 05:31:25;;;;;;;18.08;3.03;;;5.20;99.90;;;;;;5030592;28;20045;-83
2022/12/27 05:33:51;;;;;;;20.42;4.55;;;5.50;99.90;;;;;;5029666;28;20125;-83
2022/12/27 05:36:18;;;;;;;13.30;2.83;;;5.00;99.90;;;;;;5002635;28;20416;-84
2022/12/27 05:38:44;;;;;;;14.05;2.88;;;5.70;99.90;;;;;;5006022;28;20092;-84
2022/12/27 05:41:10;;;;;;;14.00;3.50;;;4.90;99.90;;;;;;5003526;28;20045;-84
2022/12/27 05:43:37;;;;;;;13.48;3.63;;;5.60;99.90;;;;;;5014519;28;20037;-84
2022/12/27 05:46:05;;;;;;;13.30;2.80;;;4.90;99.90;;;;;;5000724;28;20147;-84
2022/12/27 05:48:31;;;;;;;17.42;3.65;;;4.90;99.90;;;;;;5004530;28;20038;-84
2022/12/27 05:50:57;;;;;;;10.48;2.22;;;5.50;99.90;;;;;;5015885;28;20116;-84
2022/12/27 05:53:23;;;;;;;15.98;2.35;;;5.00;99.90;;;;;;5021716;28;20121;-84
2022/12/27 05:55:56;;;;;;;14.13;3.28;;;5.50;99.90;;;;;;5001238;28;20123;-84
2022/12/27 05:58:23;;;;;;;17.73;3.30;;;4.80;99.90;;;;;;5013347;28;20104;-84
2022/12/27 06:00:48;;;;;;;14.32;2.72;;;4.80;99.90;;;;;;5002454;28;20042;-84
2022/12/27 06:03:14;;;;;;;16.52;3.30;;;5.50;99.90;;;;;;5008162;28;20037;-84
2022/12/27 06:05:40;;;;;;;9.10;2.70;;;4.70;99.90;;;;;;5033734;28;20051;-83
2022/12/27 06:08:06;;;;;;;18.25;2.92;;;4.70;99.90;;;;;;5015172;28;20132;-84
2022/12/27 06:10:31;;;;;;;15.68;3.50;;;4.90;99.90;;;;;;5025379;28;20038;-84
2022/12/27 06:13:01;;;;;;;14.32;3.78;;;5.20;99.90;;;;;;5003246;28;20045;-84
2022/12/27 06:15:27;;;;;;;21.80;5.15;;;4.80;99.90;;;;;;5026269;28;20042;-84
2022/12/27 06:17:53;;;;;;;23.42;3.47;;;4.60;99.90;;;;;;5034266;28;20045;-83
2022/12/27 06:20:20;;;;;;;10.90;2.53;;;4.50;99.90;;;;;;5021564;28;21005;-84
2022/12/27 06:22:46;;;;;;;9.98;2.80;;;4.50;99.90;;;;;;4988174;28;20532;-83
2022/12/27 06:25:12;;;;;;;16.40;3.60;;;5.20;99.90;;;;;;5012602;28;20045;-83
2022/12/27 06:27:38;;;;;;;18.33;3.42;;;4.40;99.90;;;;;;4984544;28;20122;-84
2022/12/27 06:30:14;;;;;;;;;;;;;;;;;;;;;
2022/12/27 06:32:40;;;;;;;16.67;4.18;;;4.30;99.90;;;;;;5019009;28;20050;-84
2022/12/27 06:35:06;;;;;;;14.45;3.25;;;4.60;99.90;;;;;;5020668;28;20084;-84
2022/12/27 06:37:35;;;;;;;13.57;4.43;;;4.30;99.90;;;;;;5028204;28;20041;-83
2022/12/27 06:40:01;;;;;;;13.73;3.83;;;4.80;99.90;;;;;;4977457;28;20128;-84
2022/12/27 06:42:29;;;;;;;13.88;3.20;;;4.30;99.90;;;;;;5020969;28;20121;-84
2022/12/27 06:44:55;;;;;;;18.88;3.70;;;5.10;99.90;;;;;;5004943;28;20049;-83
2022/12/27 06:47:21;;;;;;;15.32;2.53;;;4.60;99.90;;;;;;5017337;28;20091;-84
2022/12/27 06:49:57;;;;;;;12.15;3.33;;;4.30;99.90;;;;;;5014870;28;20041;-84
2022/12/27 06:52:25;;;;;;;13.63;3.28;;;4.70;99.90;;;;;;5009669;28;20118;-84
2022/12/27 06:55:01;;;;;;;12.60;2.63;;;4.30;99.90;;;;;;5010721;28;20065;-83
2022/12/27 06:57:30;;;;;;;14.88;3.00;;;4.20;99.90;;;;;;5015860;28;20045;-84
2022/12/27 07:02:43;;;;;;;12.70;2.67;;;4.50;99.90;;;;;;5075558;22;20087;-58
2022/12/27 07:05:09;;;;;;;17.80;2.85;;;4.30;99.90;;;;;;5031267;28;20888;-54
2022/12/27 07:07:34;;;;;;;12.75;2.60;;;4.30;99.90;;;;;;5045677;28;20246;-58
2022/12/27 07:10:00;;;;;;;16.55;3.17;;;4.30;99.90;;;;;;5014489;28;20068;-57
2022/12/27 07:12:26;;;;;;;9.88;2.30;;;4.30;99.90;;;;;;5054108;28;20044;-54
2022/12/27 07:14:51;;;;;;;18.00;3.30;;;4.30;99.90;;;;;;5033291;28;20391;-58
2022/12/27 07:17:17;;;;;;;18.33;5.70;;;4.40;99.90;;;;;;5030913;28;20131;-56
2022/12/27 07:19:43;;;;;;;20.17;6.47;;;4.40;99.90;;;;;;5053026;28;20041;-58
2022/12/27 07:22:08;;;;;;;15.93;4.60;;;4.40;99.90;;;;;;5051878;28;20036;-59
2022/12/27 07:24:34;;;;;;;16.77;3.35;;;4.30;99.90;;;;;;5044039;28;21882;-56
2022/12/27 07:27:04;;;;;;;20.38;3.40;;;4.40;99.90;;;;;;5025711;28;20194;-57
2022/12/27 07:29:30;;;;;;;20.27;2.83;;;4.30;99.90;;;;;;5060132;28;20431;-58
2022/12/27 07:31:55;;;;;;;12.40;2.47;;;4.30;99.90;;;;;;5051630;28;20418;-58
2022/12/27 07:34:21;;;;;;;16.25;3.08;;;4.30;99.90;;;;;;5035446;28;20041;-57
2022/12/27 07:36:47;;;;;;;18.60;2.60;;;4.30;99.90;;;;;;5047513;28;20047;-56
2022/12/27 07:39:13;;;;;;;14.32;2.88;;;4.30;99.90;;;;;;5053566;28;20158;-55
2022/12/27 07:41:38;;;;;;;12.43;3.85;;;4.30;99.90;;;;;;5051971;28;20259;-56
2022/12/27 07:44:04;;;;;;;18.08;3.40;;;4.20;99.90;;;;;;5046245;28;20044;-58
2022/12/27 07:46:32;;;;;;;20.73;4.57;;;4.20;99.90;;;;;;5034678;28;20079;-59
2022/12/27 07:48:58;;;;;;;17.73;3.65;;;4.20;99.90;;;;;;5045264;28;20213;-56
2022/12/27 07:51:25;;;;;;;17.75;3.67;;;4.20;99.90;;;;;;5061777;28;20198;-57
2022/12/27 07:53:52;;;;;;;11.88;3.67;;;4.20;99.90;;;;;;5045307;28;20041;-58
2022/12/27 07:56:24;;;;;;;19.02;3.35;;;4.10;99.90;;;;;;5048678;28;20055;-57
2022/12/27 07:58:50;;;;;;;14.43;3.10;;;4.10;99.90;;;;;;5043014;28;20059;-58
2022/12/27 08:01:18;;;;;;;10.07;2.53;;;4.10;99.90;;;;;;5035798;28;20049;-58
2022/12/27 08:03:44;;;;;;;14.27;3.33;;;4.00;99.90;;;;;;5042359;28;20502;-56
2022/12/27 08:06:32;;;;;;;13.65;2.55;;;4.10;99.90;;;;;;5047014;28;20043;-56
2022/12/27 08:09:02;;;;;;;14.13;2.70;;;4.10;99.90;;;;;;5044441;28;20562;-58
2022/12/27 08:11:28;;;;;;;19.70;3.40;;;4.10;99.90;;;;;;5043177;28;20032;-54
2022/12/27 08:13:54;;;;;;;10.20;4.07;;;4.10;99.90;;;;;;5043912;28;20123;-58
2022/12/27 08:16:23;;;;;;;13.00;2.08;;;4.10;99.90;;;;;;5037889;28;20586;-59
2022/12/27 08:18:49;;;;;;;11.35;2.67;;;4.10;99.90;;;;;;5029706;28;20040;-58
2022/12/27 08:21:15;;;;;;;31.08;4.38;;;4.10;99.90;;;;;;5027926;28;20032;-59
2022/12/27 08:23:41;;;;;;;17.02;2.97;;;4.10;99.90;;;;;;5056382;28;20098;-59
2022/12/27 08:26:08;;;;;;;19.60;2.58;;;4.10;99.90;;;;;;5037567;28;20052;-59
2022/12/27 08:28:33;;;;;;;22.60;3.28;;;4.10;99.90;;;;;;5045994;28;20488;-58
2022/12/27 08:31:00;;;;;;;12.68;2.50;;;4.10;99.90;;;;;;5055611;28;20041;-57
2022/12/27 08:33:27;;;;;;;12.45;2.88;;;4.10;99.90;;;;;;5045957;28;20599;-57
2022/12/27 08:35:53;;;;;;;11.57;2.33;;;4.10;99.90;;;;;;5011761;28;20128;-58
2022/12/27 08:38:18;;;;;;;13.43;3.88;;;4.10;99.90;;;;;;5030111;28;20135;-58
2022/12/27 08:40:45;;;;;;;10.18;2.92;;;4.10;99.90;;;;;;5052697;28;20049;-57
2022/12/27 08:43:11;;;;;;;17.65;3.03;;;4.20;99.90;;;;;;5048271;28;20048;-56
2022/12/27 08:45:38;;;;;;;8.43;2.80;;;4.20;99.90;;;;;;5034908;28;20044;-59
2022/12/27 08:48:04;;;;;;;16.33;2.78;;;4.20;99.90;;;;;;5037370;28;20055;-58
2022/12/27 08:50:31;;;;;;;10.38;2.85;;;4.20;99.90;;;;;;5047758;28;20479;-59
2022/12/27 08:52:58;;;;;;;17.05;2.88;;;4.30;99.90;;;;;;5020778;28;20044;-59
2022/12/27 08:55:26;;;;;;;11.60;2.45;;;4.30;99.90;;;;;;5042711;28;20036;-59
2022/12/27 08:57:59;;;;;;;14.10;2.30;;;4.30;99.90;;;;;;5035996;28;20647;-59
2022/12/27 09:00:26;;;;;;;14.23;3.25;;;4.40;99.90;;;;;;5022083;28;20086;-58
2022/12/27 09:02:52;;;;;;;11.90;2.83;;;4.50;99.90;;;;;;5026494;28;20044;-57
2022/12/27 09:05:18;;;;;;;17.95;3.63;;;4.50;99.90;;;;;;5028626;28;20392;-59
2022/12/27 09:07:45;;;;;;;17.33;2.30;;;4.60;99.90;;;;;;5021762;28;20036;-59
2022/12/27 09:10:10;;;;;;;17.55;2.85;;;4.70;99.90;;;;;;5042958;28;20048;-58
2022/12/27 09:12:36;;;;;;;14.85;3.20;;;4.70;99.90;;;;;;5039459;28;20059;-58
2022/12/27 09:15:02;;;;;;;14.57;2.35;;;4.70;99.90;;;;;;5016421;28;20032;-57
2022/12/27 09:17:27;;;;;;;18.25;3.10;;;4.80;99.90;;;;;;5011331;28;20040;-55
2022/12/27 09:19:53;;;;;;;13.88;2.17;;;4.80;99.90;;;;;;5018173;28;20047;-58
2022/12/27 09:22:19;;;;;;;15.77;3.05;;;4.80;99.90;;;;;;4991703;28;20131;-58
2022/12/27 09:24:44;;;;;;;14.15;2.70;;;4.80;99.90;;;;;;5044135;28;20529;-58
2022/12/27 09:27:11;;;;;;;12.05;2.45;;;4.80;99.90;;;;;;5052007;28;20036;-56
2022/12/27 09:29:36;;;;;;;15.15;3.50;;;4.80;99.90;;;;;;5025640;28;20051;-57
2022/12/27 09:32:02;;;;;;;10.70;3.67;;;4.90;99.90;;;;;;5032688;28;20040;-56
2022/12/27 09:34:28;;;;;;;17.77;2.30;;;4.90;99.90;;;;;;5029287;28;20115;-58
2022/12/27 09:36:53;;;;;;;9.95;2.20;;;5.00;99.90;;;;;;5036058;28;20154;-58
2022/12/27 09:39:19;;;;;;;13.00;2.47;;;5.00;99.90;;;;;;5045282;28;20051;-58
2022/12/27 09:41:54;;;;;;;18.88;3.80;;;5.00;99.90;;;;;;5041878;28;20052;-57
2022/12/27 09:44:31;;;;;;;18.20;3.95;;;5.10;99.90;;;;;;5046317;28;20196;-59
2022/12/27 09:47:16;;;;;;;13.63;3.95;;;5.10;99.90;;;;;;5035222;28;20039;-58
2022/12/27 09:49:46;;;;;;;7.43;2.03;;;5.20;99.90;;;;;;5019978;28;20049;-59
2022/12/27 09:52:19;;;;;;;14.77;2.78;;;5.20;99.90;;;;;;5040248;28;20076;-58
2022/12/27 09:55:11;;;;;;;13.50;2.77;;;5.30;99.90;;;;;;5040248;28;20408;-59
2022/12/27 09:57:43;;;;;;;10.77;2.17;;;5.40;99.90;;;;;;5041993;28;20126;-59
2022/12/27 10:00:22;;;;;;;14.98;2.53;;;5.40;99.90;;;;;;5039738;28;20049;-60
2022/12/27 10:02:49;;;;;;;14.70;2.60;;;5.50;99.90;;;;;;5025366;28;20049;-58
2022/12/27 10:05:28;;;;;;;9.27;2.00;;;5.50;99.90;;;;;;5041767;28;20283;-58
2022/12/27 10:08:09;;;;;;;12.88;2.40;;;5.60;99.90;;;;;;5040400;28;20404;-58
2022/12/27 10:10:43;;;;;;;9.27;2.05;;;5.60;99.90;;;;;;5040737;28;20036;-58
2022/12/27 10:13:31;;;;;;;14.82;2.47;;;5.70;99.90;;;;;;5027299;28;20040;-57
2022/12/27 10:16:11;;;;;;;10.57;2.70;;;5.70;99.90;;;;;;5042136;28;20050;-57
2022/12/27 10:19:12;;;;;;;11.50;1.88;;;5.70;99.90;;;;;;5040476;28;20037;-55
2022/12/27 10:21:52;;;;;;;15.75;2.78;;;5.80;99.90;;;;;;5038918;28;20403;-57
2022/12/27 10:24:22;;;;;;;8.25;1.90;;;5.90;99.90;;;;;;5033359;28;20119;-57
2022/12/27 10:26:50;;;;;;;12.18;2.47;;;6.00;99.90;;;;;;5040199;28;20036;-58
2022/12/27 10:29:23;;;;;;;10.63;2.28;;;6.10;99.90;;;;;;5043938;28;20048;-58
2022/12/27 10:31:50;;;;;;;11.27;3.38;;;6.10;99.90;;;;;;5044786;28;20179;-56
2022/12/27 10:34:22;;;;;;;13.85;2.67;;;6.20;99.90;;;;;;5037745;28;20564;-56
2022/12/27 10:36:50;;;;;;;14.45;3.47;;;6.20;99.90;;;;;;5029629;28;20041;-59
2022/12/27 10:39:28;;;;;;;16.05;4.13;;;6.20;99.90;;;;;;5025707;28;20427;-58
2022/12/27 10:42:12;;;;;;;16.42;2.53;;;6.20;99.90;;;;;;5011562;28;20045;-57
2022/12/27 10:44:38;;;;;;;13.30;2.35;;;6.20;99.90;;;;;;5031233;28;20094;-59
2022/12/27 10:47:04;;;;;;;10.75;2.65;;;6.20;99.90;;;;;;5029818;28;20476;-59
2022/12/27 10:49:33;;;;;;;9.68;2.30;;;6.30;99.90;;;;;;5028109;28;20131;-59
2022/12/27 10:52:17;;;;;;;11.68;2.22;;;6.40;99.90;;;;;;5043117;28;20036;-59
2022/12/27 10:54:51;;;;;;;;;;;6.50;99.90;;;;;;5039338;28;20047;-59
2022/12/27 10:57:26;;;;;;;17.25;3.10;;;6.60;99.90;;;;;;5025907;28;20406;-59
2022/12/27 11:00:21;;;;;;;10.20;2.58;;;6.70;99.90;;;;;;5045497;28;20032;-57
2022/12/27 11:02:57;;;;;;;;;;;6.70;99.90;;;;;;5036764;28;20143;-58
2022/12/27 11:05:28;;;;;;;13.32;2.58;;;6.70;99.90;;;;;;5040102;28;20031;-58
2022/12/27 11:07:55;;;;;;;8.05;2.03;;;6.70;99.90;;;;;;5040491;28;20032;-56
2022/12/27 11:10:26;;;;;;;10.45;2.40;;;6.70;99.90;;;;;;5031791;28;20040;-57
2022/12/27 11:13:00;;;;;;;12.02;2.22;;;6.70;99.90;;;;;;5038146;28;20132;-58
2022/12/27 11:15:31;;;;;;;10.32;1.92;;;6.80;99.90;;;;;;5017466;28;20499;-58
2022/12/27 11:18:00;;;;;;;9.73;1.90;;;6.80;99.90;;;;;;5020495;28;20037;-54
2022/12/27 11:20:33;;;;;;;12.43;2.38;;;6.90;99.90;;;;;;5018311;28;20045;-58
2022/12/27 11:25:33;;;;;;;17.77;2.53;;;7.00;99.90;;;;;;5069917;28;20533;-58
2022/12/27 11:28:03;;;;;;;9.90;2.70;;;7.10;99.90;;;;;;5072110;28;20513;-58
2022/12/27 11:30:31;;;;;;;11.40;2.40;;;7.20;99.90;;;;;;5070957;28;20040;-59
2022/12/27 11:33:02;;;;;;;11.98;2.35;;;7.20;99.90;;;;;;5081542;28;20067;-59
2022/12/27 11:35:28;;;;;;;8.68;2.55;;;7.10;99.90;;;;;;5073452;28;20050;-59
2022/12/27 11:37:54;;;;;;;13.38;2.67;;;7.10;99.90;;;;;;5088924;28;20039;-58
2022/12/27 11:40:33;;;;;;;10.88;2.70;;;6.90;99.90;;;;;;5074988;28;20024;-55
2022/12/27 11:43:16;;;;;;;16.08;3.13;;;7.00;99.90;;;;;;5078895;28;20040;-58
2022/12/27 11:45:48;;;;;;;10.00;2.83;;;7.00;99.90;;;;;;5065019;28;20036;-57
2022/12/27 11:48:41;;;;;;;10.43;3.47;;;6.90;99.90;;;;;;5069877;28;20040;-58
2022/12/27 11:51:38;;;;;;;12.30;3.00;;;7.00;99.90;;;;;;5052203;28;20048;-58
2022/12/27 11:54:28;;;;;;;14.73;2.47;;;6.90;99.90;;;;;;5075372;28;20043;-58
2022/12/27 11:57:23;;;;;;;14.32;3.20;;;6.80;99.90;;;;;;5077768;28;20101;-58
2022/12/27 12:00:13;;;;;;;17.80;3.15;;;6.90;99.90;;;;;;5071679;28;20036;-58
2022/12/27 12:02:54;;;;;;;9.95;2.38;;;7.00;99.90;;;;;;5078870;28;20094;-58
2022/12/27 12:05:26;;;;;;;7.28;2.10;;;7.00;99.90;;;;;;5070700;28;20094;-59
2022/12/27 12:08:11;;;;;;;14.20;2.33;;;7.00;99.90;;;;;;5068713;28;20048;-58
2022/12/27 12:10:43;;;;;;;13.02;2.25;;;7.00;99.90;;;;;;5070869;28;20055;-59
2022/12/27 12:13:33;;;;;;;10.48;2.42;;;7.00;99.90;;;;;;5069263;28;20203;-58
2022/12/27 12:16:16;;;;;;;12.13;2.50;;;7.00;99.90;;;;;;5073859;28;20067;-59
2022/12/27 12:19:09;;;;;;;11.57;2.53;;;6.90;99.90;;;;;;5072063;28;20045;-59
2022/12/27 12:22:04;;;;;;;18.23;3.60;;;7.00;99.90;;;;;;5069606;28;20028;-59
2022/12/27 12:24:39;;;;;;;;;;;7.00;99.90;;;;;;5080181;28;20262;-59
2022/12/27 12:27:25;;;;;;;15.40;2.28;;;7.00;99.90;;;;;;5074379;28;20796;-58
2022/12/27 12:30:18;;;;;;;15.10;2.63;;;7.00;99.90;;;;;;5079308;28;20047;-58
2022/12/27 12:33:13;;;;;;;7.35;1.95;;;7.00;99.90;;;;;;5071137;28;20135;-57
2022/12/27 12:36:13;;;;;;;14.88;3.83;;;6.90;99.90;;;;;;5070789;28;20048;-58
2022/12/27 12:38:49;;;;;;;10.30;2.38;;;6.90;99.90;;;;;;5068954;28;20067;-59
2022/12/27 12:41:43;;;;;;;8.48;1.77;;;6.90;99.90;;;;;;5064867;28;20036;-58
2022/12/27 12:44:35;;;;;;;10.55;2.40;;;6.90;99.90;;;;;;5045125;28;20054;-60
2022/12/27 12:47:19;;;;;;;10.32;2.00;;;6.90;99.90;;;;;;5076729;28;20055;-59
2022/12/27 12:49:51;;;;;;;10.13;2.20;;;6.90;99.90;;;;;;5057209;28;20055;-58
2022/12/27 12:52:35;;;;;;;9.02;2.13;;;6.80;99.90;;;;;;5070713;28;20587;-57
2022/12/27 12:55:22;;;;;;;10.13;2.38;;;6.90;99.90;;;;;;5069785;28;20233;-58
2022/12/27 12:58:25;;;;;;;11.43;2.90;;;6.90;99.90;;;;;;5066310;28;20059;-58
2022/12/27 13:00:54;;;;;;;11.50;3.03;;;6.90;99.90;;;;;;5025082;28;20098;-56
2022/12/27 13:04:04;;;;;;;13.05;2.67;;;6.90;99.90;;;;;;5073185;28;20517;-59
2022/12/27 13:06:49;;;;;;;11.27;2.60;;;6.90;99.90;;;;;;5020216;28;20493;-59
2022/12/27 13:09:27;;;;;;;11.18;2.85;;;6.90;99.90;;;;;;5075812;28;20456;-59
2022/12/27 13:12:03;;;;;;;13.68;2.67;;;6.90;99.90;;;;;;5070218;28;20071;-59
2022/12/27 13:14:53;;;;;;;14.35;3.47;;;6.90;99.90;;;;;;5061669;28;20656;-59
2022/12/27 13:18:01;;;;;;;11.18;3.30;;;6.90;99.90;;;;;;5072021;28;20048;-58
2022/12/27 13:20:45;;;;;;;13.35;2.88;;;6.80;99.90;;;;;;5057972;28;20486;-57
2022/12/27 13:23:51;;;;;;;14.05;3.78;;;6.80;99.90;;;;;;5030683;28;1139661;-58
2022/12/27 13:26:32;;;;;;;19.35;5.35;;;6.70;99.90;;;;;;5056814;28;20070;-58
2022/12/27 13:29:16;;;;;;;17.40;3.72;;;6.70;99.90;;;;;;5059503;28;20483;-57
2022/12/27 13:31:57;;;;;;;11.23;3.30;;;6.70;99.90;;;;;;5072244;28;20130;-58
2022/12/27 13:34:44;;;;;;;13.23;3.95;;;6.70;99.90;;;;;;5079079;28;20521;-56
2022/12/27 13:37:39;;;;;;;11.48;3.00;;;6.60;99.90;;;;;;5072977;28;20055;-57
2022/12/27 13:40:28;;;;;;;13.02;4.45;;;6.60;99.90;;;;;;5060628;28;20075;-58
2022/12/27 13:43:09;;;;;;;16.48;3.78;;;6.60;99.90;;;;;;5075211;28;20565;-58
2022/12/27 13:46:06;;;;;;;14.30;3.42;;;6.60;99.90;;;;;;5080638;28;20044;-59
2022/12/27 13:48:42;;;;;;;12.55;3.55;;;6.60;99.90;;;;;;5078565;28;20147;-58
2022/12/27 13:51:39;;;;;;;14.25;4.53;;;6.60;99.90;;;;;;5076621;28;20555;-58
2022/12/27 13:54:35;;;;;;;16.83;4.32;;;6.60;99.90;;;;;;5078389;28;20131;-58
2022/12/27 13:57:10;;;;;;;17.02;4.32;;;6.60;99.90;;;;;;5075462;28;20047;-58
2022/12/27 13:59:55;;;;;;;13.25;3.88;;;6.60;99.90;;;;;;5070273;28;20044;-58
2022/12/27 14:02:36;;;;;;;12.98;4.45;;;6.60;99.90;;;;;;5065068;28;20665;-58
2022/12/27 14:05:02;;;;;;;15.43;3.80;;;6.60;99.90;;;;;;5060097;28;20076;-58
2022/12/27 14:07:50;;;;;;;12.20;3.95;;;6.60;99.90;;;;;;5076865;28;20410;-59
2022/12/27 14:10:42;;;;;;;14.80;3.58;;;6.60;99.90;;;;;;5070828;28;20044;-58
2022/12/27 14:13:09;;;;;;;12.95;4.03;;;6.60;99.90;;;;;;5080231;28;20052;-58
2022/12/27 14:15:59;;;;;;;13.88;4.18;;;6.60;99.90;;;;;;5060884;28;20378;-58
2022/12/27 14:18:43;;;;;;;17.13;3.83;;;6.60;99.90;;;;;;5077275;28;20043;-58
2022/12/27 14:21:44;;;;;;;11.77;4.10;;;6.60;99.90;;;;;;5052228;28;20051;-59
2022/12/27 14:24:29;;;;;;;11.93;4.35;;;6.50;99.90;;;;;;5077971;28;20051;-59
2022/12/27 14:27:27;;;;;;;10.50;4.10;;;6.50;99.90;;;;;;5077227;28;20036;-59
2022/12/27 14:30:11;;;;;;;18.38;4.28;;;6.50;99.90;;;;;;5075120;28;20040;-60
2022/12/27 14:33:07;;;;;;;15.27;4.43;;;6.40;99.90;;;;;;5071748;28;20048;-59
2022/12/27 14:36:28;;;;;;;12.95;3.75;;;6.40;99.90;;;;;;5080308;28;20095;-59
2022/12/27 14:39:09;;;;;;;16.90;4.18;;;6.40;99.90;;;;;;5064839;28;20626;-59
2022/12/27 14:42:08;;;;;;;20.70;5.07;;;6.40;99.90;;;;;;5080911;28;20050;-59
2022/12/27 14:47:26;;;;;;;10.93;4.82;;;6.40;99.90;;;;;;5061698;28;20044;-58
2022/12/27 14:50:27;;;;;;;13.95;5.15;;;6.30;99.90;;;;;;5032408;28;20053;-57
2022/12/27 14:53:23;;;;;;;16.63;5.95;;;6.30;99.90;;;;;;5005441;28;20623;-59
2022/12/27 14:55:52;;;;;;;11.75;5.22;;;6.30;99.90;;;;;;4997816;28;20052;-59
2022/12/27 14:58:42;;;;;;;18.85;5.43;;;6.20;99.90;;;;;;4961532;28;20565;-58
2022/12/27 15:01:22;;;;;;;17.65;4.97;;;6.20;99.90;;;;;;4979953;28;20041;-59
2022/12/27 15:03:55;;;;;;;13.55;5.10;;;6.20;99.90;;;;;;4987297;28;20064;-60
2022/12/27 15:06:33;;;;;;;16.33;5.85;;;6.20;99.90;;;;;;4966781;28;20041;-60